This is the latest recevied weather packets stored in our database for station/object OE-11361. If no packets are shown the sender has not sent any weather packets the latest 10 day(s).
| Time | Temp. | Humidity | Pressure | Rain* | Wind** | Luminosity | Snow |
|---|---|---|---|---|---|---|---|
| 1788080703 | 22.78° C | 60% | 1016.6 hPa | 0 mm | - | 627 W/m² | - |
| 1788080104 | 22.22° C | 61% | 1016.7 hPa | 0 mm | - | 606 W/m² | - |
| 1788079277 | 21.11° C | 63% | 1017 hPa | 0 mm | - | 586 W/m² | - |
| 1788078903 | 21.11° C | 63% | 1017.3 hPa | 0 mm | - | 558 W/m² | - |
| 1788078304 | 20.56° C | 64% | 1017.4 hPa | 0 mm | - | 538 W/m² | - |
| 1788077476 | 20° C | 68% | 1017.5 hPa | 0 mm | - | 420 W/m² | - |
| 1788077104 | 20° C | 70% | 1017.5 hPa | 0 mm | - | 489 W/m² | - |
| 1788076503 | 18.89° C | 72% | 1017.7 hPa | 0 mm | - | 462 W/m² | - |
| 1788075676 | 17.78° C | 78% | 1018.1 hPa | 0 mm | - | 358 W/m² | - |
| 1788075303 | 17.78° C | 79% | 1018.1 hPa | 0 mm | - | 351 W/m² | - |
| 1788074704 | 16.67° C | 81% | 1018.3 hPa | 0 mm | - | 310 W/m² | - |
| 1788073877 | 16.11° C | 84% | 1018.5 hPa | 0 mm | - | 186 W/m² | - |
| 1788073503 | 15.56° C | 83% | 1018.4 hPa | 0 mm | - | 152 W/m² | - |
| 1788072903 | 15.56° C | 85% | 1018.5 hPa | 0 mm | - | 207 W/m² | - |
| 1788072077 | 15° C | 89% | 1018.6 hPa | 0 mm | - | 145 W/m² | - |
| 1788071704 | 14.44° C | 90% | 1018.8 hPa | 0 mm | - | 90 W/m² | - |
| 1788071104 | 13.89° C | 91% | 1018.9 hPa | 0 mm | - | 62 W/m² | - |
| 1788070277 | 13.33° C | 93% | 1018.9 hPa | 0 mm | - | 48 W/m² | - |
| 1788069903 | 13.89° C | 92% | 1018.9 hPa | 0 mm | - | 41 W/m² | - |
| 1788069304 | 13.89° C | 90% | 1018.8 hPa | 0 mm | - | 48 W/m² | - |
| 1788068477 | 13.33° C | 94% | 1018.9 hPa | 0 mm | - | 48 W/m² | - |
| 1788068104 | 13.33° C | 94% | 1018.9 hPa | 0 mm | - | 34 W/m² | - |
| 1788067504 | 13.33° C | 93% | 1019 hPa | 0 mm | - | 28 W/m² | - |
| 1788066677 | 13.33° C | 93% | 1018.9 hPa | 0 mm | - | 21 W/m² | - |
| 1788066303 | 13.33° C | 93% | 1018.6 hPa | 0 mm | - | 21 W/m² | - |
* Rain latest hour (hover to see other rain measurements)
** Current wind speed in m/s (hover to see current wind gust speed)